Time;durP1;ratioP1;P1;durP2;ratioP2;P2;SDS_P1;SDS_P2;PMS_P1;PMS_P2;Temp;Humidity;BMP_temperature;BMP_pressure;BME280_temperature;BME280_humidity;BME280_pressure;Samples;Min_cycle;Max_cycle;Signal;HPM_P1;HPM_P2
2023/05/06 00:04:29;;;;;;;0.47;0.10;;;;;;;13.67;100.00;101678.53;10431351;28;20041;-78
2023/05/06 00:09:31;;;;;;;0.00;0.00;;;;;;;13.99;100.00;101668.13;10428385;28;20453;-78
2023/05/06 00:14:35;;;;;;;0.00;0.00;;;;;;;13.57;100.00;101670.56;10428581;28;20045;-78
2023/05/06 00:19:37;;;;;;;0.22;0.10;;;;;;;13.26;100.00;101667.13;10433891;28;20045;-78
2023/05/06 00:24:39;;;;;;;0.47;0.20;;;;;;;13.13;100.00;101670.22;10440860;28;20045;-77
2023/05/06 00:29:40;;;;;;;0.10;0.10;;;;;;;13.77;100.00;101659.81;10427064;28;20099;-78
2023/05/06 00:34:42;;;;;;;0.10;0.10;;;;;;;13.45;100.00;101657.28;10423056;28;20510;-78
2023/05/06 00:39:44;;;;;;;0.00;0.00;;;;;;;13.49;100.00;101664.31;10447740;28;20065;-79
2023/05/06 00:44:45;;;;;;;0.00;0.00;;;;;;;13.70;100.00;101663.09;10441765;28;20484;-78
2023/05/06 00:49:48;;;;;;;0.00;0.00;;;;;;;13.61;100.00;101664.59;10439585;28;20099;-78
2023/05/06 00:54:50;;;;;;;0.05;0.05;;;;;;;13.51;100.00;101667.81;10438570;28;20053;-79
2023/05/06 00:59:52;;;;;;;0.00;0.00;;;;;;;14.09;100.00;101659.72;10438851;28;20500;-79
2023/05/06 01:04:54;;;;;;;0.13;0.13;;;;;;;13.68;100.00;101654.41;10424098;28;20565;-79
2023/05/06 01:10:06;;;;;;;0.10;0.10;;;;;;;13.41;100.00;101658.03;10421894;28;20118;-79
2023/05/06 01:15:22;;;;;;;0.22;0.15;;;;;;;13.50;100.00;101655.72;10438855;28;20049;-79
2023/05/06 01:20:25;;;;;;;0.15;0.05;;;;;;;13.95;100.00;101643.84;10440773;28;20045;-79
2023/05/06 01:25:29;;;;;;;0.00;0.00;;;;;;;13.87;100.00;101656.63;10421701;28;20385;-79
2023/05/06 01:30:39;;;;;;;0.03;0.00;;;;;;;13.59;100.00;101644.69;10439680;28;20053;-79
2023/05/06 01:36:07;;;;;;;0.50;0.10;;;;;;;12.98;100.00;101645.69;10437460;28;20702;-79
2023/05/06 01:41:14;;;;;;;0.20;0.20;;;;;;;13.12;100.00;101634.81;10425409;28;20041;-79
2023/05/06 01:46:21;;;;;;;0.10;0.10;;;;;;;12.76;100.00;101645.91;10437794;28;20049;-79
2023/05/06 01:51:24;;;;;;;0.28;0.10;;;;;;;12.00;100.00;101660.00;10455534;28;20040;-80
2023/05/06 01:56:29;;;;;;;1.08;0.75;;;;;;;12.23;100.00;101665.00;10420154;28;20451;-79
2023/05/06 02:01:30;;;;;;;0.00;0.00;;;;;;;12.64;100.00;101659.34;10421577;28;20067;-79
2023/05/06 02:06:32;;;;;;;0.47;0.17;;;;;;;12.84;100.00;101653.03;10441892;28;20135;-78
2023/05/06 02:11:34;;;;;;;0.10;0.10;;;;;;;13.12;100.00;101647.75;10446960;28;20048;-79
2023/05/06 02:16:39;;;;;;;0.40;0.40;;;;;;;12.12;100.00;101653.44;10418573;28;20084;-79
2023/05/06 02:21:41;;;;;;;0.30;0.30;;;;;;;12.55;100.00;101659.94;10459861;28;20047;-78
2023/05/06 02:26:43;;;;;;;0.25;0.25;;;;;;;13.44;100.00;101655.56;10420668;28;20049;-78
2023/05/06 02:31:44;;;;;;;0.30;0.30;;;;;;;12.36;100.00;101659.38;10445843;28;20068;-79
2023/05/06 02:36:46;;;;;;;0.20;0.10;;;;;;;12.70;100.00;101649.19;10443588;28;20068;-78
2023/05/06 02:41:49;;;;;;;0.30;0.30;;;;;;;13.33;100.00;101644.84;10443907;28;20404;-78
2023/05/06 02:46:52;;;;;;;0.05;0.05;;;;;;;13.35;100.00;101655.28;10442867;28;20045;-79
2023/05/06 02:51:53;;;;;;;0.00;0.00;;;;;;;13.06;100.00;101647.59;10459082;28;20045;-78
2023/05/06 02:56:55;;;;;;;0.57;0.50;;;;;;;12.70;100.00;101650.03;10440457;28;20126;-78
2023/05/06 03:01:56;;;;;;;0.63;0.52;;;;;;;13.30;100.00;101637.88;10443916;28;20489;-78
2023/05/06 03:06:58;;;;;;;0.65;0.20;;;;;;;13.60;100.00;101639.56;10443070;28;20045;-78
2023/05/06 03:12:01;;;;;;;0.00;0.00;;;;;;;13.38;100.00;101634.63;10426652;28;20538;-77
2023/05/06 03:17:03;;;;;;;0.70;0.43;;;;;;;12.89;100.00;101640.25;10430235;28;20056;-78
2023/05/06 03:22:08;;;;;;;0.88;0.60;;;;;;;13.30;100.00;101645.66;10442634;28;20496;-78
2023/05/06 03:27:14;;;;;;;0.95;0.45;;;;;;;12.78;100.00;101646.78;10427533;28;20077;-79
2023/05/06 03:32:18;;;;;;;1.33;0.88;;;;;;;12.98;100.00;101655.13;10449543;28;20049;-79
2023/05/06 03:37:20;;;;;;;0.30;0.30;;;;;;;13.41;100.00;101645.09;10418776;28;20053;-78
2023/05/06 03:42:26;;;;;;;0.28;0.28;;;;;;;13.93;100.00;101646.41;10443490;28;20136;-78
2023/05/06 03:47:28;;;;;;;0.20;0.20;;;;;;;13.29;100.00;101645.63;10443801;28;20049;-78
2023/05/06 03:52:29;;;;;;;0.57;0.30;;;;;;;13.20;100.00;101646.25;10436875;28;20049;-77
2023/05/06 03:57:33;;;;;;;0.03;0.03;;;;;;;14.02;100.00;101645.75;10426489;28;20056;-80
2023/05/06 04:02:35;;;;;;;0.10;0.00;;;;;;;13.40;100.00;101635.59;10421025;28;20045;-79
2023/05/06 04:07:38;;;;;;;0.00;0.00;;;;;;;13.59;100.00;101630.03;10423491;28;20565;-79
2023/05/06 04:12:40;;;;;;;0.22;0.10;;;;;;;13.35;100.00;101634.56;10437114;28;20037;-79
2023/05/06 04:17:43;;;;;;;1.13;0.40;;;;;;;13.21;100.00;101637.66;10431377;28;20041;-78
2023/05/06 04:22:45;;;;;;;0.38;0.38;;;;;;;13.47;100.00;101642.66;10423837;28;20103;-79
2023/05/06 04:27:47;;;;;;;1.10;0.43;;;;;;;13.57;100.00;101646.38;10439050;28;20139;-79
2023/05/06 04:32:49;;;;;;;0.45;0.43;;;;;;;14.00;100.00;101651.72;10427986;28;20416;-80
2023/05/06 04:37:53;;;;;;;0.63;0.43;;;;;;;13.90;100.00;101656.69;10437808;28;20048;-79
2023/05/06 04:43:00;;;;;;;0.40;0.38;;;;;;;13.55;100.00;101666.19;10438118;28;20043;-78
2023/05/06 04:48:05;;;;;;;0.28;0.20;;;;;;;13.67;100.00;101663.00;10420481;28;20400;-79
2023/05/06 04:53:07;;;;;;;0.80;0.60;;;;;;;13.65;100.00;101670.75;10453088;28;20037;-79
2023/05/06 04:58:09;;;;;;;1.30;0.85;;;;;;;13.78;100.00;101677.13;10432075;28;20048;-79
2023/05/06 05:03:12;;;;;;;0.98;0.77;;;;;;;13.32;100.00;101677.63;10437701;28;20053;-79
2023/05/06 05:08:14;;;;;;;0.40;0.40;;;;;;;14.08;100.00;101676.13;10437653;28;20045;-80
2023/05/06 05:13:16;;;;;;;1.55;1.25;;;;;;;14.30;100.00;101681.78;10437172;28;20385;-78
2023/05/06 05:18:18;;;;;;;1.35;0.93;;;;;;;13.58;100.00;101684.38;10437291;28;20045;-79
2023/05/06 05:23:22;;;;;;;1.10;0.77;;;;;;;13.61;100.00;101690.50;10440588;28;20467;-79
2023/05/06 05:28:23;;;;;;;1.40;0.70;;;;;;;13.86;100.00;101688.53;10437177;28;20049;-80
2023/05/06 05:33:26;;;;;;;2.35;1.00;;;;;;;13.69;100.00;101682.94;10437300;28;20132;-79
2023/05/06 05:38:27;;;;;;;1.08;0.80;;;;;;;13.63;100.00;101690.53;10454627;28;20120;-79
2023/05/06 05:43:30;;;;;;;4.05;0.75;;;;;;;14.37;100.00;101694.06;10430878;28;20045;-79
2023/05/06 05:48:33;;;;;;;0.82;0.77;;;;;;;14.11;100.00;101699.53;10419701;28;20060;-80
2023/05/06 05:53:36;;;;;;;0.40;0.40;;;;;;;14.77;100.00;101700.16;10452142;28;20136;-79
2023/05/06 05:58:39;;;;;;;4.85;1.13;;;;;;;15.08;100.00;101695.59;10437157;28;20049;-79
2023/05/06 06:03:42;;;;;;;1.10;0.47;;;;;;;15.10;100.00;101706.88;10420554;28;20045;-80
2023/05/06 06:08:44;;;;;;;1.73;0.80;;;;;;;15.18;100.00;101694.06;10430311;28;20045;-79
2023/05/06 06:13:47;;;;;;;3.28;1.50;;;;;;;15.57;100.00;101700.84;10420581;28;20044;-79
2023/05/06 06:18:49;;;;;;;3.00;1.50;;;;;;;15.55;100.00;101702.56;10436378;28;20044;-79
2023/05/06 06:23:51;;;;;;;2.40;1.45;;;;;;;15.74;100.00;101706.34;10420217;28;20451;-79
2023/05/06 06:28:53;;;;;;;4.75;1.02;;;;;;;15.26;100.00;101712.38;10420200;28;20077;-79
2023/05/06 06:33:55;;;;;;;3.78;1.45;;;;;;;16.09;100.00;101713.88;10436598;28;20041;-79
2023/05/06 06:38:57;;;;;;;1.52;1.00;;;;;;;15.98;100.00;101707.63;10435275;28;20052;-78
2023/05/06 06:43:58;;;;;;;0.65;0.57;;;;;;;16.37;100.00;101709.09;10453388;28;20045;-77
2023/05/06 06:49:03;;;;;;;2.17;1.73;;;;;;;16.32;100.00;101718.56;10436277;28;20110;-78
2023/05/06 06:54:04;;;;;;;2.00;1.50;;;;;;;16.62;100.00;101722.47;10451482;28;20065;-77
2023/05/06 06:59:06;;;;;;;1.52;0.95;;;;;;;17.65;100.00;101707.19;10420060;28;20045;-78
2023/05/06 07:04:10;;;;;;;2.15;0.93;;;;;;;17.56;100.00;101715.81;10442568;28;20044;-78
2023/05/06 07:09:12;;;;;;;0.57;0.57;;;;;;;16.66;100.00;101724.25;10460631;28;20051;-77
2023/05/06 07:14:14;;;;;;;3.30;1.42;;;;;;;17.44;100.00;101716.56;10445444;28;20037;-78
2023/05/06 07:19:15;;;;;;;1.25;0.85;;;;;;;17.98;100.00;101717.94;10434507;28;20795;-77
2023/05/06 07:24:17;;;;;;;1.63;1.38;;;;;;;19.56;100.00;101714.38;10437632;28;20094;-78
2023/05/06 07:29:18;;;;;;;1.58;1.08;;;;;;;19.94;100.00;101710.94;10419113;28;20114;-78
2023/05/06 07:34:20;;;;;;;1.35;1.08;;;;;;;19.94;100.00;101715.31;10442083;28;20033;-77
2023/05/06 07:39:22;;;;;;;2.22;1.02;;;;;;;19.74;100.00;101712.66;10440560;28;20049;-78
2023/05/06 07:44:24;;;;;;;3.88;1.10;;;;;;;19.10;100.00;101715.13;10422381;28;20127;-78
2023/05/06 07:49:27;;;;;;;1.48;1.10;;;;;;;20.21;100.00;101714.44;10437081;28;20102;-77
2023/05/06 07:54:30;;;;;;;1.05;0.85;;;;;;;21.06;100.00;101715.91;10450128;28;20489;-79
2023/05/06 07:59:32;;;;;;;0.45;0.45;;;;;;;20.19;100.00;101721.41;10439292;28;20045;-78
2023/05/06 08:04:34;;;;;;;1.40;1.27;;;;;;;20.25;100.00;101726.63;10434078;28;20052;-78
2023/05/06 08:09:35;;;;;;;1.10;0.82;;;;;;;21.24;100.00;101721.09;10449972;28;20049;-78
2023/05/06 08:14:37;;;;;;;1.95;1.20;;;;;;;20.80;100.00;101726.50;10425830;28;20049;-79
2023/05/06 08:19:38;;;;;;;2.22;1.05;;;;;;;20.13;100.00;101731.88;10440349;28;20045;-78
2023/05/06 08:24:40;;;;;;;1.13;0.60;;;;;;;20.89;100.00;101729.97;10425611;28;20555;-78
2023/05/06 08:29:42;;;;;;;2.28;1.10;;;;;;;20.70;100.00;101734.34;10421611;28;20048;-79
2023/05/06 08:34:43;;;;;;;1.50;1.05;;;;;;;20.76;100.00;101736.13;10416612;28;20049;-79
2023/05/06 08:39:45;;;;;;;2.03;1.20;;;;;;;20.84;100.00;101736.13;10441040;28;20048;-78
2023/05/06 08:44:50;;;;;;;1.48;0.73;;;;;;;20.91;100.00;101743.94;10457275;28;20067;-78
2023/05/06 08:49:52;;;;;;;3.35;2.33;;;;;;;20.46;100.00;101735.28;10411231;28;20114;-78
2023/05/06 08:54:59;;;;;;;1.42;0.73;;;;;;;20.89;100.00;101745.69;10420620;28;20083;-79
2023/05/06 09:00:03;;;;;;;1.65;1.55;;;;;;;21.27;100.00;101737.66;10401838;28;20127;-78
2023/05/06 09:05:07;;;;;;;3.17;0.75;;;;;;;21.89;100.00;101730.28;10434161;28;20052;-78
2023/05/06 09:10:13;;;;;;;1.95;1.45;;;;;;;20.73;100.00;101738.78;10420231;28;20534;-79
2023/05/06 09:15:15;;;;;;;1.13;0.50;;;;;;;22.30;100.00;101720.31;10441482;28;20048;-79
2023/05/06 09:20:17;;;;;;;2.10;1.10;;;;;;;22.41;100.00;101712.34;10426817;28;20068;-79
2023/05/06 09:25:20;;;;;;;0.88;0.63;;;;;;;23.14;100.00;101705.28;10440329;28;20562;-78
2023/05/06 09:30:21;;;;;;;2.80;0.93;;;;;;;21.67;100.00;101708.59;10426417;28;20075;-79
2023/05/06 09:35:27;;;;;;;0.75;0.50;;;;;;;23.53;100.00;101696.88;10440033;28;20400;-79
2023/05/06 09:40:29;;;;;;;0.63;0.60;;;;;;;23.10;100.00;101695.72;10450251;28;20118;-79
2023/05/06 09:45:31;;;;;;;0.52;0.38;;;;;;;23.59;100.00;101698.53;10428721;28;20418;-80
2023/05/06 09:50:35;;;;;;;1.38;0.70;;;;;;;24.07;100.00;101692.50;10409822;28;20054;-78
2023/05/06 09:55:38;;;;;;;0.30;0.30;;;;;;;23.35;100.00;101687.50;10412276;28;20087;-80
2023/05/06 10:00:40;;;;;;;0.70;0.35;;;;;;;24.04;100.00;101687.31;10446033;28;20057;-78
2023/05/06 10:05:44;;;;;;;0.75;0.25;;;;;;;24.88;100.00;101673.38;10426972;28;20451;-78
2023/05/06 10:10:48;;;;;;;2.63;1.13;;;;;;;26.38;100.00;101663.56;10446150;28;20060;-78
2023/05/06 10:15:51;;;;;;;0.00;0.00;;;;;;;26.27;100.00;101662.06;10430125;28;20046;-78
2023/05/06 10:20:54;;;;;;;0.88;0.60;;;;;;;25.94;94.84;101661.19;10409520;28;20045;-78
2023/05/06 10:25:59;;;;;;;1.15;0.77;;;;;;;24.83;100.00;101668.19;10433874;28;20468;-78
2023/05/06 10:31:03;;;;;;;0.25;0.20;;;;;;;24.50;100.00;101667.97;10436169;28;20048;-78
2023/05/06 10:36:21;;;;;;;0.32;0.20;;;;;;;26.75;98.24;101647.50;10455792;28;20044;-79
2023/05/06 10:41:26;;;;;;;0.47;0.38;;;;;;;26.48;93.50;101658.88;10450461;28;20480;-78
2023/05/06 10:46:29;;;;;;;0.35;0.35;;;;;;;25.17;91.61;101656.88;10430919;28;20122;-79
2023/05/06 10:51:33;;;;;;;0.00;0.00;;;;;;;26.16;88.35;101643.03;10415324;28;20049;-79
2023/05/06 10:56:58;;;;;;;0.00;0.00;;;;;;;25.44;91.31;101651.00;10418621;28;20500;-79
2023/05/06 11:02:05;;;;;;;0.10;0.10;;;;;;;24.73;95.25;101653.47;10427482;28;20041;-79
2023/05/06 11:07:12;;;;;;;0.22;0.20;;;;;;;25.77;88.87;101638.72;10450702;28;20132;-80
2023/05/06 11:12:19;;;;;;;0.43;0.40;;;;;;;25.20;100.00;101634.88;10425384;28;20110;-79
2023/05/06 11:17:31;;;;;;;0.60;0.35;;;;;;;25.02;88.97;101630.88;10435641;28;20041;-80
2023/05/06 11:22:39;;;;;;;0.60;0.47;;;;;;;26.35;87.77;101624.00;10427052;28;20045;-80
2023/05/06 11:27:41;;;;;;;0.97;0.77;;;;;;;27.02;88.15;101614.97;10431110;28;20524;-78
2023/05/06 11:32:45;;;;;;;1.00;1.00;;;;;;;25.89;89.12;101619.06;10450966;28;20033;-78
2023/05/06 11:37:47;;;;;;;0.10;0.05;;;;;;;25.44;86.84;101638.72;10452667;28;20055;-79
2023/05/06 11:42:48;;;;;;;0.47;0.45;;;;;;;26.17;86.12;101628.94;10453100;28;20045;-80
2023/05/06 11:47:53;;;;;;;0.10;0.10;;;;;;;27.68;82.23;101617.22;10436026;28;20040;-80
2023/05/06 11:52:55;;;;;;;0.32;0.30;;;;;;;26.86;79.11;101618.09;10434285;28;20044;-78
2023/05/06 11:57:56;;;;;;;0.45;0.22;;;;;;;26.83;76.21;101628.78;10436541;28;20155;-79
2023/05/06 12:02:58;;;;;;;0.00;0.00;;;;;;;27.15;83.38;101623.38;10413978;28;20083;-80
2023/05/06 12:08:00;;;;;;;0.00;0.00;;;;;;;27.33;77.52;101617.47;10435683;28;20049;-81
2023/05/06 12:13:02;;;;;;;1.50;0.88;;;;;;;26.08;75.65;101623.91;10422794;28;20037;-80
2023/05/06 12:18:04;;;;;;;0.20;0.20;;;;;;;27.80;69.78;101613.28;10414994;28;20057;-80
2023/05/06 12:23:10;;;;;;;2.63;0.30;;;;;;;25.83;75.34;101621.88;10439187;28;20698;-80
2023/05/06 12:28:21;;;;;;;0.50;0.40;;;;;;;26.49;83.59;101613.03;10455498;28;20076;-80
2023/05/06 12:33:22;;;;;;;7.53;0.30;;;;;;;25.19;84.89;101623.44;10434727;28;20044;-80
2023/05/06 12:38:24;;;;;;;0.22;0.10;;;;;;;25.30;84.39;101619.69;10440381;28;20641;-80
2023/05/06 12:43:30;;;;;;;0.38;0.30;;;;;;;25.14;76.00;101619.19;10433625;28;20060;-80
2023/05/06 12:48:32;;;;;;;0.00;0.00;;;;;;;26.78;76.35;101601.59;10441116;28;20045;-80
2023/05/06 12:53:34;;;;;;;0.35;0.08;;;;;;;26.58;83.18;101605.69;10435831;28;20041;-79
2023/05/06 12:58:36;;;;;;;0.20;0.20;;;;;;;26.71;70.14;101603.56;10431015;28;20045;-81
2023/05/06 13:03:39;;;;;;;1.50;0.32;;;;;;;26.18;73.40;101609.50;10419490;28;20045;-81
2023/05/06 13:08:41;;;;;;;1.65;0.22;;;;;;;27.34;73.54;101597.19;10432449;28;20048;-79
2023/05/06 13:13:43;;;;;;;0.20;0.20;;;;;;;27.21;73.76;101596.72;10446102;28;20041;-79
2023/05/06 13:18:44;;;;;;;0.40;0.40;;;;;;;26.42;76.85;101596.50;10445966;28;20049;-79
2023/05/06 13:23:47;;;;;;;0.28;0.20;;;;;;;26.67;71.67;101591.34;10435153;28;20049;-80
2023/05/06 13:28:49;;;;;;;0.10;0.10;;;;;;;26.60;73.32;101590.69;10454553;28;20041;-79
2023/05/06 13:33:50;;;;;;;0.10;0.00;;;;;;;25.85;76.79;101588.41;10431308;28;20080;-80
2023/05/06 13:38:52;;;;;;;0.50;0.45;;;;;;;27.28;75.77;101578.88;10427557;28;20060;-80
2023/05/06 13:43:54;;;;;;;2.40;1.65;;;;;;;25.66;75.66;101580.13;10426833;28;20102;-79
2023/05/06 13:48:55;;;;;;;0.47;0.28;;;;;;;26.55;71.97;101574.06;10428067;28;20102;-79
2023/05/06 13:53:57;;;;;;;0.00;0.00;;;;;;;25.60;74.63;101586.41;10435424;28;20052;-79
2023/05/06 13:58:59;;;;;;;0.63;0.38;;;;;;;25.70;74.62;101584.38;10426414;28;20111;-79
2023/05/06 14:04:00;;;;;;;0.05;0.05;;;;;;;25.03;75.06;101586.03;10440103;28;20436;-79
2023/05/06 14:09:03;;;;;;;0.28;0.25;;;;;;;25.59;77.73;101576.75;10436893;28;20053;-79
2023/05/06 14:14:05;;;;;;;0.20;0.20;;;;;;;25.40;81.08;101578.16;10440001;28;20076;-80
2023/05/06 14:19:07;;;;;;;0.20;0.15;;;;;;;26.09;69.66;101567.53;10446230;28;20488;-80
2023/05/06 14:24:09;;;;;;;0.00;0.00;;;;;;;27.04;68.27;101554.97;10457662;28;20838;-81
2023/05/06 14:29:11;;;;;;;0.00;0.00;;;;;;;26.75;73.91;101551.47;10422654;28;20053;-79
2023/05/06 14:34:13;;;;;;;0.05;0.05;;;;;;;25.90;75.01;101549.53;10434110;28;20099;-80
2023/05/06 14:39:14;;;;;;;0.57;0.38;;;;;;;25.48;65.39;101555.09;10442020;28;20497;-79
2023/05/06 14:44:16;;;;;;;0.00;0.00;;;;;;;26.50;76.40;101539.00;10427713;28;20106;-79
2023/05/06 14:49:17;;;;;;;0.63;0.38;;;;;;;26.68;64.90;101536.72;10420525;28;20114;-79
2023/05/06 14:54:19;;;;;;;0.80;0.22;;;;;;;25.31;69.12;101543.16;10440601;28;20056;-79
2023/05/06 14:59:21;;;;;;;0.10;0.10;;;;;;;25.52;67.88;101535.63;10432833;28;20412;-79
2023/05/06 15:04:23;;;;;;;0.03;0.03;;;;;;;25.86;70.09;101528.53;10451687;28;20053;-79
2023/05/06 15:09:25;;;;;;;0.20;0.20;;;;;;;26.06;68.24;101530.63;10426044;28;20067;-78
2023/05/06 15:14:26;;;;;;;0.30;0.20;;;;;;;25.57;72.39;101532.88;10448118;28;20462;-77
2023/05/06 15:19:28;;;;;;;0.03;0.03;;;;;;;26.56;70.50;101528.25;10456463;28;21013;-78
2023/05/06 15:24:30;;;;;;;0.00;0.00;;;;;;;26.71;75.64;101529.56;10416723;28;20098;-79
2023/05/06 15:29:31;;;;;;;0.38;0.20;;;;;;;25.92;71.01;101529.25;10425287;28;20049;-80
2023/05/06 15:34:33;;;;;;;0.52;0.30;;;;;;;25.63;76.44;101532.69;10420652;28;20497;-81
2023/05/06 15:39:36;;;;;;;0.47;0.43;;;;;;;25.42;74.53;101534.16;10436406;28;20052;-80
2023/05/06 15:44:40;;;;;;;0.10;0.10;;;;;;;25.26;72.03;101536.28;10434772;28;20059;-80
2023/05/06 15:49:41;;;;;;;0.00;0.00;;;;;;;25.49;71.40;101543.63;10451366;28;20067;-80
2023/05/06 15:54:46;;;;;;;0.00;0.00;;;;;;;25.78;77.21;101540.19;10450871;28;20041;-81
2023/05/06 15:59:50;;;;;;;0.17;0.10;;;;;;;25.47;73.11;101532.25;10448804;28;20037;-79
2023/05/06 16:04:52;;;;;;;0.35;0.35;;;;;;;24.60;81.42;101534.31;10420902;28;20049;-79
2023/05/06 16:09:54;;;;;;;0.22;0.22;;;;;;;24.96;85.07;101539.66;10452161;28;20053;-80
2023/05/06 16:14:55;;;;;;;5.57;2.47;;;;;;;24.85;86.38;101534.66;10423645;28;20049;-79
2023/05/06 16:19:57;;;;;;;11.73;5.78;;;;;;;24.54;84.19;101530.06;10438130;28;20103;-77
2023/05/06 16:24:58;;;;;;;2.53;1.65;;;;;;;24.87;80.66;101531.97;10452186;28;20515;-78
2023/05/06 16:30:00;;;;;;;0.52;0.52;;;;;;;24.89;90.38;101535.44;10455684;28;20045;-78
2023/05/06 16:35:06;;;;;;;0.45;0.10;;;;;;;24.77;88.99;101526.06;10431611;28;20499;-79
2023/05/06 16:40:10;;;;;;;3.35;1.15;;;;;;;24.21;87.42;101529.88;10416590;28;20049;-79
2023/05/06 16:45:16;;;;;;;0.65;0.50;;;;;;;24.73;88.07;101518.25;10431691;28;20049;-79
2023/05/06 16:50:17;;;;;;;0.55;0.38;;;;;;;24.13;84.42;101525.69;10448535;28;20500;-79
2023/05/06 16:55:20;;;;;;;0.00;0.00;;;;;;;24.23;90.44;101514.94;10435079;28;20045;-79
2023/05/06 17:00:23;;;;;;;0.30;0.28;;;;;;;23.83;93.54;101520.13;10415926;28;20056;-79
2023/05/06 17:05:26;;;;;;;0.03;0.03;;;;;;;24.49;88.75;101515.25;10426586;28;20488;-79
2023/05/06 17:10:28;;;;;;;0.25;0.25;;;;;;;24.10;92.16;101515.22;10436013;28;20049;-79
2023/05/06 17:15:30;;;;;;;1.00;0.77;;;;;;;24.27;86.42;101507.81;10440385;28;20065;-77
2023/05/06 17:20:32;;;;;;;0.25;0.17;;;;;;;24.93;93.19;101515.13;10428270;28;20057;-77
2023/05/06 17:25:48;;;;;;;0.10;0.10;;;;;;;24.96;100.00;101520.31;10411997;28;20139;-77
2023/05/06 17:30:50;;;;;;;0.00;0.00;;;;;;;24.38;97.93;101519.00;10441407;28;20100;-78
2023/05/06 17:35:51;;;;;;;0.00;0.00;;;;;;;24.66;99.36;101523.66;10442527;28;20076;-76
2023/05/06 17:40:53;;;;;;;0.47;0.10;;;;;;;23.61;97.80;101537.16;10430276;28;20049;-75
2023/05/06 17:45:54;;;;;;;0.00;0.00;;;;;;;22.50;100.00;101550.31;10432738;28;20449;-77
2023/05/06 17:51:03;;;;;;;0.00;0.00;;;;;;;21.72;100.00;101554.69;10405813;28;20053;-78
2023/05/06 17:56:04;;;;;;;0.17;0.13;;;;;;;21.18;100.00;101553.44;10427277;28;20669;-77
2023/05/06 18:01:06;;;;;;;0.30;0.15;;;;;;;21.09;100.00;101563.97;10425333;28;20044;-76
2023/05/06 18:06:07;;;;;;;0.17;0.10;;;;;;;21.27;100.00;101556.81;10432518;28;20033;-78
2023/05/06 18:11:09;;;;;;;0.57;0.30;;;;;;;21.05;100.00;101568.34;10429787;28;20053;-77
2023/05/06 18:16:11;;;;;;;1.35;0.30;;;;;;;20.54;100.00;101571.25;10433793;28;20076;-80
2023/05/06 18:21:12;;;;;;;0.10;0.10;;;;;;;20.71;100.00;101580.75;10423207;28;20463;-79
2023/05/06 18:26:14;;;;;;;0.00;0.00;;;;;;;21.01;100.00;101586.72;10436335;28;20041;-78
2023/05/06 18:31:35;;;;;;;0.47;0.00;;;;;;;20.95;100.00;101582.38;10416584;28;20492;-77
2023/05/06 18:36:37;;;;;;;3.08;0.40;;;;;;;20.28;100.00;101601.03;10416812;28;20053;-77
2023/05/06 18:41:40;;;;;;;0.20;0.17;;;;;;;20.43;100.00;101594.00;10424451;28;20056;-76
2023/05/06 18:46:41;;;;;;;0.25;0.25;;;;;;;20.34;100.00;101601.88;10435364;28;20431;-79
2023/05/06 18:51:43;;;;;;;1.60;0.85;;;;;;;20.11;100.00;101621.13;10428311;28;20044;-77
2023/05/06 18:56:45;;;;;;;1.40;0.80;;;;;;;20.06;100.00;101622.88;10436085;28;20491;-76
2023/05/06 19:01:47;;;;;;;0.80;0.77;;;;;;;19.92;100.00;101626.38;10442515;28;20551;-79
2023/05/06 19:06:50;;;;;;;0.70;0.50;;;;;;;20.39;100.00;101627.16;10424545;28;20041;-78
2023/05/06 19:11:52;;;;;;;1.38;0.52;;;;;;;20.63;100.00;101624.44;10436936;28;20047;-77
2023/05/06 19:16:53;;;;;;;0.30;0.30;;;;;;;20.29;100.00;101628.91;10421616;28;20041;-78
2023/05/06 19:21:56;;;;;;;0.20;0.20;;;;;;;20.72;100.00;101625.28;10436570;28;20055;-80
2023/05/06 19:26:59;;;;;;;0.30;0.30;;;;;;;20.21;100.00;101632.44;10438841;28;20041;-79
2023/05/06 19:32:01;;;;;;;0.90;0.40;;;;;;;20.89;100.00;101630.44;10426691;28;20098;-78
2023/05/06 19:37:02;;;;;;;0.20;0.20;;;;;;;20.22;100.00;101642.88;10443072;28;20045;-77
2023/05/06 19:42:04;;;;;;;0.32;0.32;;;;;;;20.98;100.00;101633.88;10425794;28;20496;-78
2023/05/06 19:47:12;;;;;;;1.65;0.28;;;;;;;20.67;100.00;101644.47;10447571;28;20053;-77
2023/05/06 19:52:13;;;;;;;0.05;0.03;;;;;;;20.61;100.00;101646.25;10449412;28;20053;-77
2023/05/06 19:57:15;;;;;;;0.60;0.22;;;;;;;20.28;100.00;101655.97;10453764;28;20576;-77
2023/05/06 20:02:16;;;;;;;1.13;0.55;;;;;;;20.26;100.00;101655.09;10430646;28;20424;-77
2023/05/06 20:07:18;;;;;;;5.05;0.70;;;;;;;20.88;100.00;101652.28;10439312;28;20041;-77
2023/05/06 20:12:25;;;;;;;1.27;0.65;;;;;;;20.89;100.00;101640.91;10440702;28;20059;-78
2023/05/06 20:17:26;;;;;;;0.73;0.70;;;;;;;20.26;100.00;101655.09;10458088;28;20049;-77
2023/05/06 20:22:30;;;;;;;0.50;0.50;;;;;;;20.55;100.00;101648.91;10439977;28;20063;-77
2023/05/06 20:27:31;;;;;;;0.40;0.30;;;;;;;20.58;100.00;101653.25;10421213;28;20116;-77
2023/05/06 20:32:36;;;;;;;0.25;0.20;;;;;;;20.52;100.00;101646.28;10426439;28;20046;-77
2023/05/06 20:37:40;;;;;;;0.63;0.55;;;;;;;20.48;100.00;101657.66;10425988;28;20095;-77
2023/05/06 20:42:46;;;;;;;0.75;0.32;;;;;;;20.09;100.00;101663.00;10440773;28;20503;-77
2023/05/06 20:47:47;;;;;;;0.10;0.08;;;;;;;19.74;100.00;101665.59;10431833;28;20094;-76
2023/05/06 20:52:50;;;;;;;0.40;0.30;;;;;;;19.99;100.00;101673.47;10439536;28;20048;-76
2023/05/06 20:57:52;;;;;;;0.28;0.28;;;;;;;19.46;100.00;101668.19;10401990;28;20053;-75
2023/05/06 21:02:54;;;;;;;0.03;0.03;;;;;;;20.60;100.00;101660.22;10439253;28;20127;-76
2023/05/06 21:07:56;;;;;;;0.20;0.20;;;;;;;19.27;100.00;101662.94;10436813;28;20044;-76
2023/05/06 21:12:57;;;;;;;0.22;0.22;;;;;;;19.34;100.00;101671.66;10431350;28;20045;-77
2023/05/06 21:17:59;;;;;;;0.25;0.25;;;;;;;19.48;100.00;101669.94;10453409;28;20069;-78
2023/05/06 21:23:02;;;;;;;0.00;0.00;;;;;;;20.29;100.00;101662.91;10424635;28;20051;-78
2023/05/06 21:28:05;;;;;;;0.98;0.75;;;;;;;20.71;100.00;101656.69;10455117;28;20080;-78
2023/05/06 21:33:09;;;;;;;0.03;0.03;;;;;;;20.29;100.00;101664.69;10448516;28;20478;-77
2023/05/06 21:38:11;;;;;;;0.00;0.00;;;;;;;20.21;100.00;101655.97;10448892;28;20049;-77
2023/05/06 21:43:16;;;;;;;0.47;0.28;;;;;;;20.33;100.00;101655.06;10445518;28;20069;-77
2023/05/06 21:48:18;;;;;;;0.20;0.20;;;;;;;20.25;100.00;101653.34;10449595;28;20052;-77
2023/05/06 21:53:19;;;;;;;0.10;0.00;;;;;;;20.45;100.00;101655.91;10450754;28;20084;-77
2023/05/06 21:58:21;;;;;;;0.30;0.30;;;;;;;20.80;100.00;101640.09;10429654;28;20049;-78
2023/05/06 22:03:22;;;;;;;0.03;0.03;;;;;;;20.34;100.00;101651.59;10423982;28;20041;-78
2023/05/06 22:08:24;;;;;;;0.45;0.35;;;;;;;20.41;100.00;101650.69;10422808;28;20057;-79
2023/05/06 22:13:26;;;;;;;1.00;0.52;;;;;;;20.81;100.00;101652.31;10428467;28;20507;-78
2023/05/06 22:18:28;;;;;;;0.17;0.10;;;;;;;20.69;100.00;101646.25;10448332;28;20053;-78
2023/05/06 22:23:30;;;;;;;0.05;0.05;;;;;;;20.81;100.00;101634.88;10431226;28;20052;-78
2023/05/06 22:28:32;;;;;;;0.17;0.10;;;;;;;20.18;100.00;101643.78;10437100;28;20118;-79
2023/05/06 22:33:33;;;;;;;0.55;0.55;;;;;;;20.40;100.00;101636.72;10427354;28;20112;-79
2023/05/06 22:38:35;;;;;;;0.28;0.10;;;;;;;19.87;100.00;101651.66;10432460;28;20045;-77
2023/05/06 22:50:30;;;;;;;0.73;0.47;;;;;;;19.86;100.00;101651.69;10455435;28;20068;-77
2023/05/06 22:55:31;;;;;;;1.45;0.73;;;;;;;19.60;100.00;101653.41;10460437;28;20051;-77
2023/05/06 23:00:33;;;;;;;1.13;0.90;;;;;;;19.37;100.00;101657.72;10442392;28;20377;-78
2023/05/06 23:05:35;;;;;;;3.40;1.50;;;;;;;19.56;100.00;101646.41;10441602;28;20049;-77
2023/05/06 23:10:36;;;;;;;1.52;0.73;;;;;;;19.69;100.00;101641.22;10462320;28;20102;-78